Thekla Schulte — 9VPY3 — position and weather

sailwx.info

Track history (hours):
 
Tides and Currents Weather Stations Pressure Air Temp Water Temp Dewpoint Dewpoint Depression Visibility Wind Speed Wind Dir Waves Ship Positions

Thekla Schulte

Last reported at 2018-Jun-06 22:35 UTC. Time now 2018-Jun-23 17:58 UTC.
Position N 32°46' W 079°52'.
Warning: this ship's position is 16 days out of date.

Length 210 m; draft 8.2 m.

Type: Cargo ship. MMSI: 565473000.

Date/timePositionNaut miles runAvg speedWind from/ knotsBaromVisibWave heightAir tempDewpointWater temp
2018-Jun-06 22:35N 32°46' W 079°52'112.9
2018-Jun-06 22:30N 32°46' W 079°53'5 0.4
2018-Jun-06 10:07N 32°51' W 079°56'1 8.3
2018-Jun-06 09:58N 32°50' W 079°56'4 7.7
2018-Jun-06 09:30N 32°47' W 079°54'  
2018-Jun-04 02:41N 40°32' W 074°01'313.2
2018-Jun-04 02:30N 40°35' W 074°02'5 9.9
2018-Jun-04 02:00N 40°39' W 074°06'2 4.6
2018-Jun-04 01:29N 40°40' W 074°09'1 0.1
2018-Jun-03 09:24N 40°39' W 074°09'3 6.6
2018-Jun-03 09:00N 40°39' W 074°05'  
Track history (hours):
 
Tides and Currents Weather Stations Pressure Air Temp Water Temp Dewpoint Dewpoint Depression Visibility Wind Speed Wind Dir Waves Ship Positions

Thekla Schulte

Last reported at 2018-Jun-06 22:35 UTC. Time now 2018-Jun-23 17:58 UTC.
Position N 32°46' W 079°52'.
Warning: this ship's position is 16 days out of date.

Length 210 m; draft 8.2 m.

Type: Cargo ship. MMSI: 565473000.

Date/timePositionNaut miles runAvg speedWind from/ knotsBaromVisibWave heightAir tempDewpointWater temp
2018-Jun-06 22:35N 32°46' W 079°52'112.9
2018-Jun-06 22:30N 32°46' W 079°53'5 0.4
2018-Jun-06 10:07N 32°51' W 079°56'1 8.3
2018-Jun-06 09:58N 32°50' W 079°56'4 7.7
2018-Jun-06 09:30N 32°47' W 079°54'  
2018-Jun-04 02:41N 40°32' W 074°01'313.2
2018-Jun-04 02:30N 40°35' W 074°02'5 9.9
2018-Jun-04 02:00N 40°39' W 074°06'2 4.6
2018-Jun-04 01:29N 40°40' W 074°09'1 0.1
2018-Jun-03 09:24N 40°39' W 074°09'3 6.6
2018-Jun-03 09:00N 40°39' W 074°05'  

Dump ship's entire track history